Terminal Aerodrome Forecast
Issued by NWS Flagstaff, AZ

Home | Current Version | Previous Version | Text Only | Print | Product List | Glossary On
Versions: 1 2 3 4 5 6 7 8 9 10 11 12 13 14 15 16 17 18 19 20 21 22 23 24 25
000
FTUS45 KFGZ 062340
TAFFLG
TAF
KFLG 062340Z 0700/0724 21014G21KT P6SM SCT100
     FM070200 22006KT P6SM FEW050 FEW150
     FM071700 21016G26KT P6SM SCT200=

USA.gov is the U.S. government's official web portal to all federal, state and local government web resources and services.